Time;durP1;ratioP1;P1;durP2;ratioP2;P2;SDS_P1;SDS_P2;PMS_P1;PMS_P2;Temp;Humidity;BMP_temperature;BMP_pressure;BME280_temperature;BME280_humidity;BME280_pressure;Samples;Min_cycle;Max_cycle;Signal;HPM_P1;HPM_P2
2021/01/21 00:00:52;;;;;;;26.53;14.80;;;;;;;-5.09;69.71;101009.46;1748876;80;21503;-40
2021/01/21 00:03:20;;;;;;;26.90;15.27;;;;;;;-5.09;69.65;101007.26;1746011;80;21469;-39
2021/01/21 00:05:47;;;;;;;28.97;17.10;;;;;;;-5.10;69.65;101008.12;1754498;80;21585;-40
2021/01/21 00:08:15;;;;;;;31.83;15.67;;;;;;;-5.09;69.60;101001.66;1714527;82;21170;-41
2021/01/21 00:10:42;;;;;;;28.87;16.47;;;;;;;-5.07;69.56;101000.35;1739488;80;21705;-39
2021/01/21 00:13:10;;;;;;;31.07;16.60;;;;;;;-5.05;69.50;100995.62;1748568;80;21438;-40
2021/01/21 00:15:37;;;;;;;30.13;17.67;;;;;;;-5.04;69.40;100999.98;1743070;80;21161;-40
2021/01/21 00:18:05;;;;;;;29.23;15.80;;;;;;;-5.04;69.32;100989.98;1743220;80;21146;-40
2021/01/21 00:20:33;;;;;;;27.90;15.90;;;;;;;-5.05;69.33;100993.02;1748467;80;21166;-40
2021/01/21 00:23:01;;;;;;;27.20;15.93;;;;;;;-5.04;69.31;100980.47;1702342;83;21201;-39
2021/01/21 00:25:29;;;;;;;29.00;15.97;;;;;;;-5.02;69.28;100980.47;1745207;80;21187;-40
2021/01/21 00:27:57;;;;;;;27.63;16.10;;;;;;;-5.02;69.26;100980.47;1711657;82;21150;-40
2021/01/21 00:30:24;;;;;;;30.53;15.17;;;;;;;-5.01;69.23;100983.11;1746128;80;21187;-41
2021/01/21 00:32:52;;;;;;;29.47;17.40;;;;;;;-5.00;69.16;100983.55;1710082;82;21143;-40
2021/01/21 00:35:20;;;;;;;29.10;15.07;;;;;;;-5.00;69.13;100980.94;1694506;83;21161;-39
2021/01/21 00:37:47;;;;;;;26.07;14.97;;;;;;;-5.01;69.07;100981.81;1690904;83;21570;-40
2021/01/21 00:40:14;;;;;;;27.70;16.07;;;;;;;-5.01;69.14;100984.84;1695623;83;21641;-40
2021/01/21 00:42:42;;;;;;;34.20;18.80;;;;;;;-5.00;69.20;100977.04;1692830;83;21186;-39
2021/01/21 00:45:10;;;;;;;29.73;16.57;;;;;;;-4.98;69.19;100974.91;1711503;83;21183;-38
2021/01/21 00:47:38;;;;;;;27.33;15.63;;;;;;;-4.96;69.14;100971.87;1747895;80;21165;-40
2021/01/21 00:50:07;;;;;;;31.67;15.77;;;;;;;-4.96;69.18;100975.77;1751132;80;21148;-38
2021/01/21 00:52:35;;;;;;;32.50;18.60;;;;;;;-4.94;69.15;100980.57;1753844;80;21138;-38
2021/01/21 00:55:03;;;;;;;29.23;16.13;;;;;;;-4.92;69.17;100968.46;1745858;80;21157;-38
2021/01/21 00:57:30;;;;;;;28.97;16.77;;;;;;;-4.90;69.11;100967.62;1748139;80;21134;-39
2021/01/21 00:59:58;;;;;;;26.40;15.33;;;;;;;-4.88;69.11;100956.81;1706072;82;21150;-37
2021/01/21 01:02:26;;;;;;;25.63;14.70;;;;;;;-4.85;69.11;100956.84;1744226;80;21161;-37
2021/01/21 01:04:54;;;;;;;28.37;16.00;;;;;;;-4.80;69.05;100959.07;1711977;82;21165;-37
2021/01/21 01:07:22;;;;;;;29.10;16.33;;;;;;;-4.78;68.99;100959.10;1752054;80;21149;-38
2021/01/21 01:09:50;;;;;;;29.43;15.80;;;;;;;-4.76;68.95;100951.29;1716752;82;21157;-40
2021/01/21 01:12:20;;;;;;;28.00;14.17;;;;;;;-4.73;68.89;100957.86;1741658;80;21174;-38
2021/01/21 01:14:47;;;;;;;26.87;15.87;;;;;;;-4.73;68.86;100956.13;1744261;80;21858;-37
2021/01/21 01:17:15;;;;;;;29.43;14.30;;;;;;;-4.71;68.81;100956.12;1743844;80;21664;-39
2021/01/21 01:19:45;;;;;;;28.40;14.10;;;;;;;-4.70;68.80;100953.98;1746924;80;21158;-39
2021/01/21 01:22:14;;;;;;;29.07;16.23;;;;;;;-4.67;68.81;100957.48;1745708;80;21165;-39
2021/01/21 01:24:42;;;;;;;24.77;14.40;;;;;;;-4.64;68.77;100950.13;1741882;80;21165;-39
2021/01/21 01:27:11;;;;;;;26.17;14.33;;;;;;;-4.62;68.74;100951.89;1752066;80;21156;-39
2021/01/21 01:29:38;;;;;;;24.10;13.97;;;;;;;-4.62;68.74;100950.59;1747989;80;21153;-38
2021/01/21 01:32:06;;;;;;;28.73;15.77;;;;;;;-4.61;68.75;100944.95;1743215;80;21153;-39
2021/01/21 01:34:46;;;;;;;26.77;14.37;;;;;;;-4.55;68.77;100942.43;1797765;77;23129;-38
2021/01/21 01:37:15;;;;;;;24.17;13.53;;;;;;;-4.58;68.75;100947.17;1723544;81;21157;-38
2021/01/21 01:39:45;;;;;;;26.30;14.93;;;;;;;-4.58;68.72;100941.97;1710968;83;21110;-39
2021/01/21 01:42:14;;;;;;;26.50;14.77;;;;;;;-4.54;68.78;100948.50;1740696;80;21606;-39
2021/01/21 01:44:43;;;;;;;25.80;15.87;;;;;;;-4.53;68.79;100935.52;1712115;82;21181;-38
2021/01/21 01:47:11;;;;;;;23.50;14.03;;;;;;;-4.50;68.79;100930.33;1743908;81;21149;-40
2021/01/21 01:49:39;;;;;;;25.30;14.60;;;;;;;-4.46;68.74;100932.52;1741953;81;21117;-39
2021/01/21 01:52:07;;;;;;;22.87;14.27;;;;;;;-4.46;68.73;100927.31;1742401;81;21166;-40
2021/01/21 01:54:34;;;;;;;23.33;13.53;;;;;;;-4.43;68.72;100922.16;1744492;81;21218;-40
2021/01/21 01:57:04;;;;;;;24.83;15.60;;;;;;;-4.44;68.74;100923.87;1712895;81;21598;-39
2021/01/21 01:59:34;;;;;;;25.35;14.68;;;;;;;-4.43;68.79;100923.03;1717168;82;21146;-37
2021/01/21 02:02:02;;;;;;;23.77;14.27;;;;;;;-4.40;68.83;100923.48;1716672;82;21129;-38
2021/01/21 02:04:32;;;;;;;25.57;14.57;;;;;;;-4.41;68.85;100925.23;1741598;80;21152;-39
2021/01/21 02:07:19;;;;;;;25.03;14.00;;;;;;;-4.34;68.87;100923.53;1803905;78;22471;-39
2021/01/21 02:09:58;;;;;;;22.97;14.53;;;;;;;-4.36;68.92;100920.03;1781713;79;21632;-37
2021/01/21 02:13:10;;;;;;;25.37;15.00;;;;;;;-4.35;68.94;100908.34;1777499;80;21125;-39
2021/01/21 02:15:51;;;;;;;;;;;;;;;-4.31;68.97;100914.44;1778099;80;21589;-37
2021/01/21 02:18:35;;;;;;;25.00;14.07;;;;;;;-4.30;68.99;100905.78;1778001;79;20448;-47
2021/01/21 02:21:33;;;;;;;22.63;13.50;;;;;;;-4.29;69.09;100897.53;1783602;80;21125;-38
2021/01/21 02:24:32;;;;;;;21.47;14.77;;;;;;;-4.28;69.10;100900.16;1777969;79;21114;-38
2021/01/21 02:27:04;;;;;;;25.60;15.67;;;;;;;-4.29;69.18;100890.58;1781546;79;21153;-37
2021/01/21 02:29:37;;;;;;;27.13;14.30;;;;;;;-4.28;69.26;100898.86;1746861;80;21125;-38
2021/01/21 02:32:24;;;;;;;24.80;14.80;;;;;;;-4.27;69.33;100896.69;1785573;80;21145;-39
2021/01/21 02:35:08;;;;;;;24.63;14.13;;;;;;;-4.27;69.38;100894.08;1753510;79;21287;-39
2021/01/21 02:37:37;;;;;;;25.20;13.27;;;;;;;-4.26;69.42;100885.42;1782033;79;21133;-40
2021/01/21 02:40:07;;;;;;;26.07;14.10;;;;;;;-4.25;69.44;100887.16;1770632;79;21153;-38
2021/01/21 02:42:48;;;;;;;27.13;16.30;;;;;;;-4.19;69.48;100889.80;1803140;78;22578;-38
2021/01/21 02:45:17;;;;;;;24.90;14.57;;;;;;;-4.20;69.54;100894.58;1776431;80;21180;-39
2021/01/21 02:47:47;;;;;;;24.00;14.50;;;;;;;-4.18;69.56;100899.81;1774435;78;21171;-39
2021/01/21 02:50:17;;;;;;;23.47;14.20;;;;;;;-4.17;69.59;100891.99;1779691;78;21137;-36
2021/01/21 02:52:50;;;;;;;25.43;15.53;;;;;;;-4.18;69.60;100887.66;1744372;81;21181;-39
2021/01/21 02:55:33;;;;;;;28.87;15.73;;;;;;;-4.17;69.71;100889.39;1712100;82;21219;-37
2021/01/21 02:58:26;;;;;;;26.20;15.20;;;;;;;-4.14;69.73;100882.89;1712291;82;21170;-38
2021/01/21 03:00:54;;;;;;;25.27;14.37;;;;;;;-4.11;69.80;100883.78;1707392;82;21827;-37
2021/01/21 03:03:23;;;;;;;23.90;14.90;;;;;;;-4.09;69.79;100883.38;1705489;83;21649;-37
2021/01/21 03:05:54;;;;;;;32.87;16.23;;;;;;;-4.07;69.78;100877.31;1707583;82;21200;-38
2021/01/21 03:08:24;;;;;;;23.77;13.60;;;;;;;-4.06;69.80;100874.27;1711246;82;21165;-38
2021/01/21 03:10:52;;;;;;;30.60;16.00;;;;;;;-4.05;70.14;100879.94;1712315;82;21160;-39
2021/01/21 03:13:20;;;;;;;26.70;15.33;;;;;;;-4.01;69.97;100882.99;1652806;82;21157;-38
2021/01/21 03:15:50;;;;;;;25.40;14.87;;;;;;;-3.99;69.91;100874.32;1729934;81;21149;-36
2021/01/21 03:18:19;;;;;;;23.03;13.03;;;;;;;-3.97;69.87;100889.98;1707057;83;21150;-38
2021/01/21 03:20:47;;;;;;;26.70;13.83;;;;;;;-3.98;69.87;100880.40;1705281;83;21173;-36
2021/01/21 03:23:16;;;;;;;23.00;13.17;;;;;;;-3.98;69.87;100879.09;1708972;83;21142;-37
2021/01/21 03:25:46;;;;;;;23.73;14.13;;;;;;;-3.99;69.91;100883.44;1713815;82;22361;-38
2021/01/21 03:28:15;;;;;;;22.03;13.80;;;;;;;-3.97;69.98;100878.25;1675408;84;21134;-38
2021/01/21 03:30:43;;;;;;;26.10;14.47;;;;;;;-3.97;70.01;100870.44;1694146;83;21152;-38
2021/01/21 03:33:11;;;;;;;22.97;15.10;;;;;;;-3.97;70.05;100863.92;1704468;83;21170;-39
2021/01/21 03:35:41;;;;;;;24.53;14.33;;;;;;;-3.94;70.07;100858.72;1725940;81;21606;-39
2021/01/21 03:38:09;;;;;;;26.47;14.03;;;;;;;-3.93;70.09;100865.70;1704365;83;21149;-37
2021/01/21 03:40:39;;;;;;;23.77;14.47;;;;;;;-3.93;70.10;100870.47;1704685;83;21138;-37
2021/01/21 03:43:07;;;;;;;27.30;14.83;;;;;;;-3.94;70.17;100877.83;1712683;82;21156;-37
2021/01/21 03:45:52;;;;;;;27.57;15.43;;;;;;;-3.88;70.23;100882.64;1756445;79;23333;-37
2021/01/21 03:48:19;;;;;;;21.13;13.27;;;;;;;-3.92;70.25;100884.37;1737465;80;21631;-38
2021/01/21 03:50:56;;;;;;;28.67;20.37;;;;;;;-3.87;70.27;100873.55;1788198;78;28878;-39
2021/01/21 03:53:24;;;;;;;28.63;15.97;;;;;;;-3.89;70.34;100879.17;1772409;79;21372;-40
2021/01/21 03:55:54;;;;;;;25.33;14.87;;;;;;;-3.81;70.28;100881.39;1744676;80;21698;-37
2021/01/21 03:58:21;;;;;;;24.47;14.37;;;;;;;-3.77;70.24;100885.77;1750575;81;21149;-38
2021/01/21 04:00:51;;;;;;;21.00;14.20;;;;;;;-3.76;70.24;100884.03;1747366;80;21492;-38
2021/01/21 04:03:18;;;;;;;25.00;14.90;;;;;;;-3.74;70.28;100882.31;1742759;81;21461;-37
2021/01/21 04:05:55;;;;;;;28.53;20.97;;;;;;;-3.69;70.36;100881.91;1782889;77;28703;-41
2021/01/21 04:08:25;;;;;;;27.50;15.73;;;;;;;-3.74;70.40;100874.49;1779858;78;21816;-40
2021/01/21 04:10:54;;;;;;;25.00;16.40;;;;;;;-3.64;70.31;100867.60;1770373;78;21137;-40
2021/01/21 04:13:30;;;;;;;29.67;21.17;;;;;;;-3.58;70.31;100863.30;1788869;78;39166;-39
2021/01/21 04:16:00;;;;;;;25.87;16.00;;;;;;;-3.60;70.30;100866.33;1774500;80;21141;-38
2021/01/21 04:18:28;;;;;;;27.27;15.87;;;;;;;-3.51;70.21;100864.19;1747797;80;21141;-39
2021/01/21 04:21:00;;;;;;;21.37;12.57;;;;;;;-3.52;70.18;100862.45;1772588;80;21252;-38
2021/01/21 04:23:27;;;;;;;24.23;14.60;;;;;;;-3.54;70.24;100865.48;1769875;80;21126;-35
2021/01/21 04:25:55;;;;;;;24.33;15.27;;;;;;;-3.56;70.29;100866.77;1772529;80;21149;-36
2021/01/21 04:28:24;;;;;;;23.30;13.93;;;;;;;-3.56;70.36;100867.20;1774994;79;21145;-38
2021/01/21 04:30:52;;;;;;;26.20;15.13;;;;;;;-3.56;70.46;100874.59;1777492;80;21149;-39
2021/01/21 04:33:19;;;;;;;25.53;14.17;;;;;;;-3.55;70.50;100875.48;1779014;79;21827;-39
2021/01/21 04:35:48;;;;;;;26.67;15.83;;;;;;;-3.57;70.53;100877.21;1773203;80;21136;-37
2021/01/21 04:38:16;;;;;;;22.43;13.40;;;;;;;-3.56;70.59;100883.72;1717329;82;21150;-37
2021/01/21 04:40:54;;;;;;;24.73;13.90;;;;;;;-3.55;70.67;100881.56;1716049;82;21605;-38
2021/01/21 04:43:40;;;;;;;29.50;15.77;;;;;;;-3.52;70.66;100881.58;1738913;81;21761;-38
2021/01/21 04:46:11;;;;;;;27.37;15.63;;;;;;;-3.50;70.68;100882.91;1741050;81;21149;-39
2021/01/21 04:48:41;;;;;;;27.43;15.03;;;;;;;-3.48;70.73;100879.84;1745916;81;21126;-39
2021/01/21 04:51:11;;;;;;;26.50;15.00;;;;;;;-3.47;70.73;100872.92;1738576;81;21155;-38
2021/01/21 04:53:50;;;;;;;30.40;16.53;;;;;;;-3.45;70.75;100872.06;1736954;81;21136;-38
2021/01/21 04:56:27;;;;;;;25.60;15.47;;;;;;;-3.42;70.82;100858.16;1740958;80;21141;-40
2021/01/21 04:59:10;;;;;;;31.87;15.37;;;;;;;-3.37;70.76;100857.31;1759590;79;23543;-37
2021/01/21 05:01:45;;;;;;;29.00;15.50;;;;;;;-3.41;70.76;100859.89;1731889;80;21137;-37
2021/01/21 05:04:14;;;;;;;24.33;15.67;;;;;;;-3.40;70.78;100858.61;1736116;82;21141;-38
2021/01/21 05:06:54;;;;;;;27.57;14.70;;;;;;;-3.35;70.79;100852.98;1800049;78;22929;-37
2021/01/21 05:09:23;;;;;;;26.77;14.33;;;;;;;-3.38;70.78;100852.94;1777924;78;21680;-37
2021/01/21 05:11:52;;;;;;;23.63;13.87;;;;;;;-3.36;70.80;100856.43;1741817;80;21133;-37
2021/01/21 05:14:29;;;;;;;26.53;15.67;;;;;;;-3.35;70.77;100854.28;1765195;80;21132;-39
2021/01/21 05:17:05;;;;;;;26.03;15.60;;;;;;;-3.33;70.79;100858.18;1775060;80;21271;-38
2021/01/21 05:19:52;;;;;;;23.00;13.43;;;;;;;-3.35;70.80;100852.98;1710953;81;21286;-38
2021/01/21 05:22:39;;;;;;;28.47;15.03;;;;;;;-3.33;70.81;100861.66;1718713;81;21635;-37
2021/01/21 05:25:27;;;;;;;27.90;15.93;;;;;;;-3.33;70.81;100869.48;1722137;81;21123;-48
2021/01/21 05:28:13;;;;;;;28.97;14.70;;;;;;;-3.32;70.90;100866.03;1725656;81;21157;-40
2021/01/21 05:30:53;;;;;;;25.17;15.87;;;;;;;-3.29;70.86;100862.56;1722481;81;21157;-41
2021/01/21 05:33:29;;;;;;;27.70;15.70;;;;;;;-3.25;70.85;100857.80;1717605;83;21585;-38
2021/01/21 05:36:08;;;;;;;23.97;14.20;;;;;;;-3.24;70.84;100863.45;1742513;81;21284;-41
2021/01/21 05:38:41;;;;;;;21.43;13.23;;;;;;;-3.23;70.86;100852.13;1723523;81;21125;-41
2021/01/21 05:41:25;;;;;;;23.30;12.73;;;;;;;-3.20;70.88;100844.75;1801618;78;23116;-41
2021/01/21 05:43:55;;;;;;;21.70;13.30;;;;;;;-3.22;70.89;100866.94;1768713;80;21133;-39
2021/01/21 05:46:25;;;;;;;27.37;14.80;;;;;;;-3.21;70.92;100871.28;1775767;79;21106;-38
2021/01/21 05:48:52;;;;;;;25.07;14.97;;;;;;;-3.19;70.94;100868.69;1735543;80;21174;-40
2021/01/21 05:51:23;;;;;;;26.83;14.57;;;;;;;-3.16;70.94;100870.00;1777613;80;21149;-38
2021/01/21 05:53:55;;;;;;;26.67;15.33;;;;;;;-3.13;70.95;100864.34;1775988;80;21148;-38
2021/01/21 05:56:27;;;;;;;24.07;12.60;;;;;;;-3.10;70.91;100860.47;1750951;80;21212;-38
2021/01/21 05:59:24;;;;;;;25.10;14.20;;;;;;;-3.02;70.87;100858.28;1800953;78;23070;-37
2021/01/21 06:01:54;;;;;;;22.45;14.33;;;;;;;-3.03;70.86;100867.86;1757105;80;21147;-37
2021/01/21 06:04:27;;;;;;;24.20;14.68;;;;;;;-2.99;70.83;100863.10;1734258;81;21157;-37
2021/01/21 06:06:55;;;;;;;26.30;15.27;;;;;;;-2.95;70.81;100874.00;1716373;81;21166;-46
2021/01/21 06:09:28;;;;;;;24.63;15.07;;;;;;;-2.92;70.79;100873.14;1671213;81;21172;-45
2021/01/21 06:12:01;;;;;;;26.63;14.93;;;;;;;-2.89;70.78;100871.39;1700902;81;21616;-36
2021/01/21 06:14:29;;;;;;;27.77;14.87;;;;;;;-2.86;70.75;100869.23;1709946;82;21164;-36
2021/01/21 06:16:57;;;;;;;23.27;14.90;;;;;;;-2.82;70.73;100882.73;1713454;82;21149;-37
2021/01/21 06:19:25;;;;;;;26.53;15.20;;;;;;;-2.78;70.68;100880.99;1690709;82;21633;-38
2021/01/21 06:22:01;;;;;;;26.47;15.47;;;;;;;-2.76;70.68;100877.95;1716869;82;21153;-37
2021/01/21 06:24:44;;;;;;;25.23;14.17;;;;;;;-2.69;70.66;100874.05;1795896;77;23057;-40
2021/01/21 06:27:11;;;;;;;24.57;16.13;;;;;;;-2.70;70.65;100873.59;1772385;78;21117;-38
2021/01/21 06:29:39;;;;;;;23.97;14.07;;;;;;;-2.65;70.65;100870.56;1776751;78;21164;-37
2021/01/21 06:32:08;;;;;;;27.63;15.30;;;;;;;-2.60;70.57;100869.27;1770425;78;21144;-37
2021/01/21 06:34:39;;;;;;;31.80;17.97;;;;;;;-2.57;70.49;100870.60;1779661;78;21173;-38
2021/01/21 06:37:14;;;;;;;26.03;15.23;;;;;;;-2.54;70.45;100865.38;1756075;78;21137;-38
2021/01/21 06:39:53;;;;;;;27.10;16.20;;;;;;;-2.51;70.47;100860.59;1774396;78;21119;-38
2021/01/21 06:42:39;;;;;;;25.57;14.43;;;;;;;-2.50;70.42;100867.10;1752239;78;21757;-38
2021/01/21 06:45:08;;;;;;;23.30;14.30;;;;;;;-2.46;70.40;100863.64;1780130;78;21284;-37
2021/01/21 06:47:35;;;;;;;27.27;16.37;;;;;;;-2.44;70.38;100865.82;1778540;78;21247;-37
2021/01/21 06:50:05;;;;;;;25.50;15.27;;;;;;;-2.41;70.33;100860.59;1777921;79;21168;-38
2021/01/21 06:52:38;;;;;;;27.67;15.90;;;;;;;-2.38;70.33;100861.03;1778624;78;21145;-38
2021/01/21 06:55:09;;;;;;;26.53;16.57;;;;;;;-2.36;70.32;100865.83;1729953;81;21169;-36
2021/01/21 06:57:42;;;;;;;26.13;14.97;;;;;;;-2.32;70.32;100873.22;1741922;80;21141;-37
2021/01/21 07:00:17;;;;;;;24.70;14.60;;;;;;;-2.29;70.28;100874.11;1753160;80;21549;-38
2021/01/21 07:02:49;;;;;;;24.50;15.27;;;;;;;-2.26;70.23;100871.93;1744541;80;21152;-49
2021/01/21 07:05:23;;;;;;;26.00;16.37;;;;;;;-2.22;70.23;100872.34;1745626;80;21469;-38
2021/01/21 07:08:01;;;;;;;22.00;14.80;;;;;;;-2.15;70.18;100870.17;1764349;79;23183;-39
2021/01/21 07:10:35;;;;;;;25.47;15.17;;;;;;;-2.17;70.19;100867.98;1741298;80;21212;-39
2021/01/21 07:13:07;;;;;;;24.13;15.07;;;;;;;-2.13;70.12;100868.88;1734156;80;21145;-39
2021/01/21 07:15:44;;;;;;;26.17;16.40;;;;;;;-2.12;70.06;100867.55;1735322;80;21163;-37
2021/01/21 07:18:20;;;;;;;23.77;14.23;;;;;;;-2.08;70.06;100861.45;1730255;80;21149;-37
2021/01/21 07:21:08;;;;;;;23.23;14.07;;;;;;;-2.04;70.01;100861.91;1739819;80;21169;-37
2021/01/21 07:23:42;;;;;;;25.00;15.97;;;;;;;-2.02;69.99;100856.21;1734663;80;21169;-38
2021/01/21 07:26:17;;;;;;;24.40;14.93;;;;;;;-1.98;69.92;100859.27;1731301;80;21177;-38
2021/01/21 07:29:19;;;;;;;22.77;14.17;;;;;;;-1.96;69.94;100852.30;1737491;80;21132;-38
2021/01/21 07:31:59;;;;;;;27.37;16.27;;;;;;;-1.92;69.91;100853.59;1734280;80;21711;-37
2021/01/21 07:34:40;;;;;;;24.50;15.13;;;;;;;-1.89;69.84;100861.02;1735187;80;21134;-38
2021/01/21 07:37:30;;;;;;;26.67;16.07;;;;;;;-1.87;69.81;100852.71;1687865;84;21153;-39
2021/01/21 07:40:10;;;;;;;25.87;15.60;;;;;;;-1.86;69.81;100841.40;1676676;83;21565;-39
2021/01/21 07:42:43;;;;;;;28.37;17.47;;;;;;;-1.82;69.77;100856.19;1690830;82;21532;-49
2021/01/21 07:45:23;;;;;;;26.10;15.93;;;;;;;-1.77;69.71;100847.89;1692125;82;21189;-41
2021/01/21 07:47:50;;;;;;;28.67;15.90;;;;;;;-1.75;69.67;100850.08;1701677;82;21548;-39
2021/01/21 07:52:58;;;;;;;25.00;15.53;;;;;;;-1.69;69.60;100842.64;1697181;82;21566;-40
2021/01/21 07:55:32;;;;;;;22.80;13.93;;;;;;;-1.65;69.50;100844.39;1674532;82;21655;-39
2021/01/21 07:58:36;;;;;;;26.50;15.30;;;;;;;-1.62;69.49;100841.76;1671763;83;22038;-39
2021/01/21 08:01:08;;;;;;;27.63;16.57;;;;;;;-1.59;69.45;100840.47;1672821;83;21190;-40
2021/01/21 08:03:46;;;;;;;24.53;15.80;;;;;;;-1.57;69.34;100833.45;1673176;83;21597;-39
2021/01/21 08:06:15;;;;;;;23.17;15.30;;;;;;;-1.55;69.40;100835.64;1671375;83;21154;-38
2021/01/21 08:08:46;;;;;;;22.13;14.47;;;;;;;-1.52;69.37;100835.62;1665895;84;21201;-38
2021/01/21 08:11:19;;;;;;;27.73;15.72;;;;;;;-1.49;69.35;100832.56;1660172;84;21193;-38
2021/01/21 08:13:47;;;;;;;26.97;16.00;;;;;;;-1.47;69.39;100836.92;1666665;84;21133;-39
2021/01/21 08:16:16;;;;;;;30.53;17.43;;;;;;;-1.45;69.38;100833.86;1658166;84;21686;-38
2021/01/21 08:18:45;;;;;;;26.50;16.70;;;;;;;-1.40;69.36;100833.85;1698008;82;21191;-40
2021/01/21 08:21:25;;;;;;;31.53;19.23;;;;;;;-1.38;69.31;100826.87;1698386;82;21439;-38
2021/01/21 08:24:01;;;;;;;29.63;17.93;;;;;;;-1.34;69.32;100822.04;1695427;82;21177;-38
2021/01/21 08:26:31;;;;;;;28.70;16.53;;;;;;;-1.32;69.29;100813.30;1709955;82;21144;-39
2021/01/21 08:28:59;;;;;;;25.93;15.83;;;;;;;-1.27;69.32;100823.75;1664642;84;21180;-39
2021/01/21 08:31:44;;;;;;;27.57;17.83;;;;;;;-1.23;69.28;100818.95;1657768;84;21181;-44
2021/01/21 08:34:19;;;;;;;26.53;15.83;;;;;;;-1.18;69.29;100821.55;1700640;82;21170;-38
2021/01/21 08:36:47;;;;;;;21.97;14.63;;;;;;;-1.13;69.17;100819.33;1700034;82;21145;-38
2021/01/21 08:39:15;;;;;;;23.13;14.63;;;;;;;-1.09;69.09;100821.48;1695348;82;21182;-51
2021/01/21 08:41:43;;;;;;;22.87;14.70;;;;;;;-1.09;69.00;100821.04;1697028;82;22201;-37
2021/01/21 08:44:16;;;;;;;24.63;15.50;;;;;;;-1.05;68.98;100818.42;1695914;82;21873;-38
2021/01/21 08:47:00;;;;;;;24.57;15.77;;;;;;;-1.01;68.99;100823.61;1697926;82;21149;-38
2021/01/21 08:49:34;;;;;;;23.03;15.23;;;;;;;-0.96;68.90;100823.18;1698370;82;21752;-36
2021/01/21 08:52:10;;;;;;;25.53;15.07;;;;;;;-0.90;68.92;100818.34;1685717;82;21707;-37
2021/01/21 08:54:53;;;;;;;25.80;15.35;;;;;;;-0.84;68.78;100823.52;1699111;82;21141;-37
2021/01/21 08:57:23;;;;;;;25.37;14.77;;;;;;;-0.77;68.77;100813.89;1694158;82;21153;-37
2021/01/21 08:59:51;;;;;;;27.50;17.33;;;;;;;-0.70;68.72;100809.91;1663235;84;21570;-40
2021/01/21 09:02:41;;;;;;;27.37;15.90;;;;;;;-0.67;68.60;100811.19;1670364;84;21160;-41
2021/01/21 09:05:14;;;;;;;25.07;15.10;;;;;;;-0.63;68.53;100814.67;1664045;84;21325;-40
2021/01/21 09:07:43;;;;;;;24.80;14.83;;;;;;;-0.58;68.43;100818.54;1657411;84;21325;-40
2021/01/21 09:10:13;;;;;;;23.57;14.50;;;;;;;-0.54;68.33;100812.41;1708432;82;21145;-37
2021/01/21 09:12:41;;;;;;;27.13;15.53;;;;;;;-0.50;68.23;100813.69;1718231;82;21114;-38
2021/01/21 09:15:12;;;;;;;26.47;15.63;;;;;;;-0.48;68.12;100812.34;1714587;82;21177;-37
2021/01/21 09:17:41;;;;;;;27.70;16.57;;;;;;;-0.44;68.04;100814.07;1713161;82;21145;-38
2021/01/21 09:20:30;;;;;;;27.70;14.90;;;;;;;-0.42;67.91;100812.31;1715278;82;21158;-39
2021/01/21 09:25:55;;;;;;;26.13;15.13;;;;;;;-0.29;67.76;100807.39;1761014;79;23381;-38
2021/01/21 09:28:22;;;;;;;26.97;16.80;;;;;;;-0.28;67.72;100808.25;1728926;80;21153;-38
2021/01/21 09:30:50;;;;;;;24.50;17.23;;;;;;;-0.23;67.75;100811.28;1734901;80;21166;-39
2021/01/21 09:33:18;;;;;;;25.07;16.97;;;;;;;-0.16;67.60;100812.52;1738005;80;21141;-39
2021/01/21 09:35:48;;;;;;;24.13;16.03;;;;;;;-0.12;67.41;100813.80;1737828;80;22052;-40
2021/01/21 09:38:15;;;;;;;26.80;16.47;;;;;;;-0.09;67.31;100805.89;1690684;80;21149;-39
2021/01/21 09:40:43;;;;;;;24.10;16.20;;;;;;;-0.05;67.36;100803.69;1733262;80;21145;-39
2021/01/21 09:43:12;;;;;;;24.83;16.53;;;;;;;-0.01;67.18;100792.26;1716291;82;21553;-47
2021/01/21 09:45:41;;;;;;;21.97;14.47;;;;;;;0.03;67.01;100795.73;1742639;80;21273;-40
2021/01/21 09:48:10;;;;;;;28.27;16.50;;;;;;;0.06;66.92;100794.84;1736305;80;21142;-38
2021/01/21 09:50:38;;;;;;;26.10;17.20;;;;;;;0.07;66.88;100790.87;1739645;80;21170;-38
2021/01/21 09:53:06;;;;;;;24.40;15.70;;;;;;;0.11;66.82;100790.41;1739607;80;21142;-38
2021/01/21 09:55:34;;;;;;;24.43;14.80;;;;;;;0.14;66.61;100787.75;1717406;80;21201;-38
2021/01/21 09:58:04;;;;;;;21.73;14.60;;;;;;;0.16;66.62;100788.16;1717416;82;21585;-40
2021/01/21 10:00:33;;;;;;;25.00;15.43;;;;;;;0.20;66.58;100795.12;1717949;82;21150;-39
2021/01/21 10:03:01;;;;;;;20.13;15.30;;;;;;;0.23;66.59;100791.59;1712050;82;21822;-37
2021/01/21 10:05:29;;;;;;;28.97;15.27;;;;;;;0.27;66.38;100788.03;1717778;82;22143;-38
2021/01/21 10:07:57;;;;;;;23.93;15.30;;;;;;;0.30;66.25;100791.92;1710738;82;21126;-39
2021/01/21 10:10:25;;;;;;;23.07;15.63;;;;;;;0.33;66.21;100791.05;1717788;82;21907;-38
2021/01/21 10:12:52;;;;;;;25.27;17.23;;;;;;;0.34;66.18;100785.77;1716919;82;21581;-38
2021/01/21 10:15:20;;;;;;;26.17;16.40;;;;;;;0.35;66.08;100780.97;1722065;82;21145;-37
2021/01/21 10:17:48;;;;;;;25.47;16.57;;;;;;;0.37;66.08;100787.48;1720359;82;21171;-37
2021/01/21 10:20:16;;;;;;;26.73;17.30;;;;;;;0.38;66.15;100780.92;1714408;82;21465;-39
2021/01/21 10:22:44;;;;;;;25.17;16.80;;;;;;;0.45;66.15;100784.32;1715244;82;21608;-39
2021/01/21 10:25:13;;;;;;;22.17;14.60;;;;;;;0.50;65.95;100775.94;1719188;81;21176;-39
2021/01/21 10:27:41;;;;;;;26.47;16.37;;;;;;;0.51;65.99;100777.70;1723333;81;21151;-38
2021/01/21 10:30:10;;;;;;;24.13;14.77;;;;;;;0.55;65.87;100771.95;1723979;81;21158;-39
2021/01/21 10:32:39;;;;;;;22.93;14.77;;;;;;;0.59;65.84;100776.29;1721505;81;21302;-39
2021/01/21 10:35:09;;;;;;;23.83;15.97;;;;;;;0.64;65.78;100770.53;1718200;81;21253;-39
2021/01/21 10:37:37;;;;;;;22.10;14.93;;;;;;;0.69;65.81;100763.91;1721714;81;21204;-39
2021/01/21 10:40:07;;;;;;;24.60;15.10;;;;;;;0.73;65.80;100762.97;1724368;81;21153;-38
2021/01/21 10:42:34;;;;;;;28.27;16.02;;;;;;;0.75;65.69;100755.48;1719418;83;21157;-40
2021/01/21 10:45:03;;;;;;;25.37;16.40;;;;;;;0.78;65.66;100754.58;1720546;81;21553;-39
2021/01/21 10:47:31;;;;;;;22.73;14.93;;;;;;;0.83;65.60;100750.13;1664765;84;21488;-39
2021/01/21 10:49:59;;;;;;;23.00;15.47;;;;;;;0.88;65.41;100743.05;1662457;84;21156;-39
2021/01/21 10:52:27;;;;;;;25.65;16.90;;;;;;;0.89;65.40;100739.56;1661065;84;21147;-38
2021/01/21 10:54:54;;;;;;;26.10;16.52;;;;;;;0.93;65.21;100737.29;1689140;83;21132;-39
2021/01/21 10:57:22;;;;;;;22.05;15.15;;;;;;;0.95;65.17;100732.03;1689665;83;21204;-37
2021/01/21 10:59:50;;;;;;;21.07;14.00;;;;;;;0.97;65.08;100724.55;1659806;84;21152;-38
2021/01/21 11:02:18;;;;;;;18.87;14.20;;;;;;;1.01;65.00;100725.39;1657634;84;21165;-37
2021/01/21 11:04:46;;;;;;;23.30;14.07;;;;;;;1.03;65.00;100723.16;1687924;83;21657;-38
2021/01/21 11:07:13;;;;;;;27.20;17.32;;;;;;;1.06;64.82;100724.41;1664775;84;21129;-38
2021/01/21 11:09:41;;;;;;;22.90;14.90;;;;;;;1.11;64.64;100729.60;1687560;83;21183;-37
2021/01/21 11:12:09;;;;;;;22.70;14.80;;;;;;;1.10;64.60;100725.22;1686630;83;21600;-37
2021/01/21 11:14:38;;;;;;;20.75;14.80;;;;;;;1.11;64.53;100729.60;1686092;83;21160;-40
2021/01/21 11:17:05;;;;;;;22.85;15.35;;;;;;;1.10;64.48;100723.05;1684048;83;21632;-40
2021/01/21 11:19:33;;;;;;;22.77;15.35;;;;;;;1.10;64.56;100720.42;1657398;85;21145;-37
2021/01/21 11:22:01;;;;;;;27.40;16.47;;;;;;;1.13;64.64;100719.91;1693583;83;21215;-38
2021/01/21 11:24:29;;;;;;;26.47;16.70;;;;;;;1.14;64.54;100712.47;1688639;83;21184;-38
2021/01/21 11:26:56;;;;;;;23.52;15.80;;;;;;;1.14;64.50;100717.73;1710692;82;21142;-38
2021/01/21 11:29:24;;;;;;;23.92;16.00;;;;;;;1.14;64.46;100711.16;1713789;82;21429;-39
2021/01/21 11:31:55;;;;;;;24.23;17.93;;;;;;;1.15;64.69;100717.27;1710077;82;21150;-39
2021/01/21 11:34:22;;;;;;;29.52;20.75;;;;;;;1.17;64.52;100715.49;1708867;82;21185;-37
2021/01/21 11:36:51;;;;;;;26.75;16.93;;;;;;;1.16;64.46;100713.73;1712947;82;21154;-39
2021/01/21 11:39:21;;;;;;;24.30;15.00;;;;;;;1.13;64.51;100712.03;1708880;82;21639;-40